KBHM 191353Z 30005KT 10SM BKN140 OVC200 28/22 A3008 RMK AO2 SLP176 BINOVC T02830222